createdAt,value
2022-08-03T00:01:50.260Z,18.90
2022-08-03T00:04:17.565Z,19.00
2022-08-03T00:06:44.259Z,19.10
2022-08-03T00:09:11.400Z,19.00
2022-08-03T00:11:38.764Z,19.00
2022-08-03T00:14:06.507Z,19.00
2022-08-03T00:16:33.721Z,18.90
2022-08-03T00:19:01.117Z,18.90
2022-08-03T00:21:28.604Z,18.80
2022-08-03T00:23:55.602Z,18.80
2022-08-03T00:26:22.317Z,18.80
2022-08-03T00:28:50.270Z,18.80
2022-08-03T00:31:17.946Z,18.70
2022-08-03T00:33:58.236Z,18.70
2022-08-03T00:36:27.389Z,18.70
2022-08-03T00:38:54.274Z,18.70
2022-08-03T00:41:20.966Z,18.60
2022-08-03T00:43:47.791Z,18.60
2022-08-03T00:46:19.197Z,18.50
2022-08-03T00:48:47.837Z,18.50
2022-08-03T00:51:14.716Z,18.50
2022-08-03T00:53:41.512Z,18.40
2022-08-03T00:56:08.227Z,18.40
2022-08-03T00:58:34.890Z,18.30
2022-08-03T01:01:01.616Z,18.40
2022-08-03T01:03:28.444Z,18.40
2022-08-03T01:06:18.680Z,18.30
2022-08-03T01:09:05.865Z,18.30
2022-08-03T01:11:59.798Z,18.40
2022-08-03T01:14:42.746Z,18.40
2022-08-03T01:17:19.030Z,18.40
2022-08-03T01:20:08.902Z,18.30
2022-08-03T01:22:57.421Z,18.30
2022-08-03T01:25:38.558Z,18.30
2022-08-03T01:28:39.102Z,18.30
2022-08-03T01:31:10.230Z,18.30
2022-08-03T01:33:42.985Z,18.30
2022-08-03T01:36:14.622Z,18.30
2022-08-03T01:38:51.972Z,18.20
2022-08-03T01:41:31.775Z,18.20
2022-08-03T01:44:29.785Z,18.20
2022-08-03T01:46:51.228Z,18.20
2022-08-03T01:49:18.279Z,18.20
2022-08-03T01:52:03.617Z,18.10
2022-08-03T01:54:37.684Z,18.10
2022-08-03T01:57:05.328Z,18.10
2022-08-03T01:59:35.343Z,18.00
2022-08-03T02:02:28.416Z,18.10
2022-08-03T02:04:54.103Z,18.10
2022-08-03T02:07:21.043Z,17.90
2022-08-03T02:09:51.474Z,17.90
2022-08-03T02:12:20.593Z,17.90
2022-08-03T02:14:49.303Z,17.90
2022-08-03T02:17:16.511Z,17.90
2022-08-03T02:19:44.259Z,17.80
2022-08-03T02:22:13.154Z,17.80
2022-08-03T02:24:40.495Z,17.80
2022-08-03T02:27:16.226Z,17.70
2022-08-03T02:29:46.609Z,17.70
2022-08-03T02:32:17.372Z,17.70
2022-08-03T02:34:48.867Z,17.70
2022-08-03T02:37:19.364Z,17.70
2022-08-03T02:39:47.703Z,17.60
2022-08-03T02:42:16.446Z,17.60
2022-08-03T02:44:48.374Z,17.60
2022-08-03T02:47:16.879Z,17.60
2022-08-03T02:49:50.571Z,17.60
2022-08-03T02:52:21.496Z,17.50
2022-08-03T02:54:51.014Z,17.60
2022-08-03T02:57:19.410Z,17.50
2022-08-03T02:59:46.908Z,17.50
2022-08-03T03:02:15.712Z,17.40
2022-08-03T03:05:50.652Z,17.40
2022-08-03T03:07:33.990Z,17.30
2022-08-03T03:10:19.465Z,17.30
2022-08-03T03:12:48.183Z,17.20
2022-08-03T03:15:14.818Z,17.30
2022-08-03T03:17:43.193Z,17.20
2022-08-03T03:20:10.590Z,17.20
2022-08-03T03:22:39.815Z,17.10
2022-08-03T03:25:08.102Z,17.10
2022-08-03T03:27:35.190Z,17.10
2022-08-03T03:30:03.930Z,17.00
2022-08-03T03:32:30.872Z,17.00
2022-08-03T03:35:00.732Z,17.00
2022-08-03T03:37:27.479Z,16.90
2022-08-03T03:39:57.006Z,16.90
2022-08-03T03:42:24.931Z,16.90
2022-08-03T03:44:51.676Z,16.90
2022-08-03T03:47:18.695Z,16.80
2022-08-03T03:49:59.639Z,16.80
2022-08-03T03:52:26.451Z,16.80
2022-08-03T03:54:56.393Z,16.80
2022-08-03T03:57:27.511Z,16.80
2022-08-03T03:59:54.265Z,16.70
2022-08-03T04:02:20.955Z,16.80
2022-08-03T04:05:06.381Z,16.80
2022-08-03T04:08:07.673Z,16.80
2022-08-03T04:10:57.134Z,16.80
2022-08-03T04:13:29.153Z,16.80
2022-08-03T04:15:59.274Z,16.80
2022-08-03T04:18:30.211Z,16.70
2022-08-03T04:20:57.914Z,16.70
2022-08-03T04:23:28.191Z,16.60
2022-08-03T04:25:56.140Z,16.70
2022-08-03T04:28:31.088Z,16.60
2022-08-03T04:31:00.983Z,16.60
2022-08-03T04:33:31.310Z,16.60
2022-08-03T04:36:03.674Z,16.60
2022-08-03T04:38:33.981Z,16.80
2022-08-03T04:41:01.468Z,16.90
2022-08-03T04:43:29.397Z,16.90
2022-08-03T04:45:57.153Z,17.10
2022-08-03T04:48:24.606Z,17.10
2022-08-03T04:50:51.852Z,17.30
2022-08-03T04:53:19.613Z,17.40
2022-08-03T04:55:46.441Z,17.50
2022-08-03T04:58:13.100Z,17.60
2022-08-03T05:00:39.794Z,17.60
2022-08-03T05:03:23.553Z,17.70
2022-08-03T05:06:01.971Z,17.80
2022-08-03T05:08:46.503Z,17.90
2022-08-03T05:11:17.569Z,18.10
2022-08-03T05:13:47.117Z,18.20
2022-08-03T05:16:14.432Z,18.20
2022-08-03T05:18:42.240Z,18.30
2022-08-03T05:21:10.149Z,18.30
2022-08-03T05:23:37.822Z,18.40
2022-08-03T05:26:04.646Z,18.50
2022-08-03T05:28:31.317Z,18.60
2022-08-03T05:30:57.977Z,18.60
2022-08-03T05:33:24.629Z,18.70
2022-08-03T05:35:56.123Z,18.90
2022-08-03T05:38:34.913Z,18.90
2022-08-03T05:41:21.890Z,18.90
2022-08-03T05:43:50.517Z,19.10
2022-08-03T05:46:17.229Z,19.30
2022-08-03T05:48:43.986Z,19.40
2022-08-03T05:51:13.680Z,19.50
2022-08-03T05:53:42.214Z,19.60
2022-08-03T05:56:14.018Z,19.60
2022-08-03T05:58:46.906Z,19.70
2022-08-03T06:01:14.762Z,19.80
2022-08-03T06:03:41.567Z,19.80
2022-08-03T06:06:08.243Z,20.00
2022-08-03T06:08:35.167Z,20.10
2022-08-03T06:11:01.943Z,20.30
2022-08-03T06:13:28.726Z,20.40
2022-08-03T06:15:55.383Z,20.50
2022-08-03T06:18:22.206Z,20.60
2022-08-03T06:20:49.636Z,20.60
2022-08-03T07:33:34.713Z,20.70
2022-08-03T07:36:01.748Z,23.90
2022-08-03T07:38:29.913Z,24.00
2022-08-03T07:40:56.569Z,24.00
2022-08-03T07:43:24.241Z,24.10
2022-08-03T07:45:51.050Z,24.30
2022-08-03T07:48:17.871Z,24.40
2022-08-03T07:50:44.615Z,24.50
2022-08-03T07:53:11.320Z,24.60
2022-08-03T07:55:38.063Z,24.60
2022-08-03T07:58:12.116Z,24.70
2022-08-03T08:00:38.996Z,24.70
2022-08-03T08:03:05.835Z,24.90
2022-08-03T08:05:32.632Z,24.90
2022-08-03T08:07:59.927Z,25.00
2022-08-03T08:10:26.741Z,25.10
2022-08-03T08:12:54.230Z,25.20
2022-08-03T08:15:21.027Z,25.40
2022-08-03T08:17:54.553Z,25.50
2022-08-03T08:20:30.771Z,25.70
2022-08-03T08:23:13.927Z,25.70
2022-08-03T08:25:52.297Z,25.70
2022-08-03T08:28:32.319Z,25.70
2022-08-03T08:31:01.005Z,25.80
2022-08-03T08:33:37.663Z,25.90
2022-08-03T08:36:15.594Z,25.90
2022-08-03T08:38:44.466Z,26.00
2022-08-03T08:41:13.027Z,26.10
2022-08-03T08:43:40.225Z,26.10
2022-08-03T08:46:08.388Z,26.20
2022-08-03T08:48:38.902Z,26.30
2022-08-03T08:51:05.995Z,26.40
2022-08-03T08:53:37.377Z,26.60
2022-08-03T08:56:05.377Z,26.60
2022-08-03T08:58:37.865Z,26.60
2022-08-03T09:01:05.991Z,26.80
2022-08-03T09:03:36.267Z,26.90
2022-08-03T09:06:03.529Z,27.00
2022-08-03T09:08:31.730Z,27.00
2022-08-03T09:10:59.349Z,27.00
2022-08-03T09:13:26.638Z,27.10
2022-08-03T09:16:13.166Z,27.10
2022-08-03T09:18:41.288Z,27.20
2022-08-03T09:21:31.745Z,27.30
2022-08-03T09:24:03.258Z,27.30
2022-08-03T09:26:32.697Z,27.30
2022-08-03T09:29:06.929Z,27.30
2022-08-03T09:31:44.839Z,27.30
2022-08-03T09:34:14.688Z,27.40
2022-08-03T09:36:49.796Z,27.50
2022-08-03T09:39:41.055Z,27.70
2022-08-03T09:42:09.658Z,27.80
2022-08-03T09:44:42.331Z,29.00
2022-08-03T09:47:33.320Z,27.80
2022-08-03T09:50:08.601Z,27.90
2022-08-03T09:52:49.919Z,27.80
2022-08-03T09:56:30.454Z,27.80
2022-08-03T09:58:10.685Z,27.80
2022-08-03T10:00:55.752Z,28.00
2022-08-03T10:03:23.383Z,28.00
2022-08-03T10:05:50.350Z,28.10
2022-08-03T10:08:18.763Z,28.20
2022-08-03T10:10:47.833Z,28.30
2022-08-03T10:13:16.544Z,28.20
2022-08-03T10:16:22.389Z,28.20
2022-08-03T10:18:31.102Z,28.20
2022-08-03T10:21:06.748Z,28.30
2022-08-03T10:23:38.427Z,28.30
2022-08-03T10:26:07.438Z,28.50
2022-08-03T10:28:46.860Z,28.60
2022-08-03T10:31:15.787Z,28.70
2022-08-03T10:33:49.635Z,28.70
2022-08-03T10:36:22.889Z,28.70
2022-08-03T10:38:55.079Z,28.70
2022-08-03T10:41:23.743Z,28.80
2022-08-03T10:43:55.278Z,28.80
2022-08-03T10:46:22.050Z,28.90
2022-08-03T10:48:53.716Z,28.90
2022-08-03T10:51:21.589Z,28.80
2022-08-03T10:53:54.761Z,28.90
2022-08-03T10:56:52.784Z,29.00
2022-08-03T10:59:47.042Z,28.90
2022-08-03T11:02:15.242Z,29.00
2022-08-03T11:04:43.246Z,29.20
2022-08-03T11:07:23.431Z,29.20
2022-08-03T11:12:34.320Z,29.20
2022-08-03T11:15:04.310Z,29.50
2022-08-03T11:17:32.717Z,29.50
2022-08-03T11:19:59.555Z,29.60
2022-08-03T11:22:46.635Z,29.60
2022-08-03T11:25:54.318Z,29.50
2022-08-03T11:28:30.538Z,29.50
2022-08-03T11:31:39.326Z,29.70
2022-08-03T11:34:11.465Z,29.80
2022-08-03T11:37:15.262Z,30.10
2022-08-03T11:39:47.049Z,30.00
2022-08-03T11:42:22.893Z,30.00
2022-08-03T11:44:57.537Z,30.00
2022-08-03T11:47:27.120Z,30.00
2022-08-03T11:50:00.037Z,29.90
2022-08-03T11:52:33.720Z,29.90
2022-08-03T11:55:00.445Z,29.90
2022-08-03T11:59:17.035Z,30.10
2022-08-03T12:00:26.231Z,30.20
2022-08-03T12:03:02.042Z,30.30
2022-08-03T12:10:34.208Z,30.40
2022-08-03T12:13:02.851Z,30.70
2022-08-03T12:15:33.919Z,30.80
2022-08-03T12:18:12.958Z,30.80
2022-08-03T12:20:41.020Z,30.70
2022-08-03T12:23:09.753Z,30.70
2022-08-03T12:25:39.671Z,30.80
2022-08-03T12:28:35.976Z,30.90
2022-08-03T12:31:06.431Z,31.00
2022-08-03T12:34:01.787Z,31.20
2022-08-03T12:36:29.464Z,31.40
2022-08-03T12:39:07.544Z,31.60
2022-08-03T12:41:36.448Z,31.60
2022-08-03T12:44:04.910Z,31.50
2022-08-03T12:46:47.479Z,31.20
2022-08-03T12:49:18.536Z,31.30
2022-08-03T12:51:45.412Z,31.60
2022-08-03T12:54:24.558Z,31.70
2022-08-03T12:57:06.109Z,31.90
2022-08-03T12:59:45.207Z,31.70
2022-08-03T13:02:26.236Z,31.80
2022-08-03T13:04:54.812Z,32.00
2022-08-03T13:07:22.586Z,32.10
2022-08-03T13:09:52.884Z,32.30
2022-08-03T13:12:24.842Z,32.30
2022-08-03T13:14:55.131Z,32.50
2022-08-03T13:17:22.274Z,32.60
2022-08-03T13:19:50.510Z,32.70
2022-08-03T13:22:19.731Z,32.80
2022-08-03T13:24:48.627Z,32.80
2022-08-03T13:28:01.730Z,32.70
2022-08-03T13:30:03.738Z,32.70
2022-08-03T13:32:30.505Z,32.60
2022-08-03T13:34:57.177Z,32.70
2022-08-03T13:37:24.056Z,32.80
2022-08-03T14:35:33.113Z,32.90
2022-08-03T14:50:44.190Z,34.20
2022-08-03T18:01:58.329Z,34.20
2022-08-03T18:03:59.605Z,34.50
2022-08-03T18:06:31.321Z,33.70
2022-08-03T18:09:00.068Z,33.00
2022-08-03T18:11:37.095Z,32.40
2022-08-03T18:14:27.273Z,32.00
2022-08-03T18:17:03.692Z,31.60
2022-08-03T18:22:25.013Z,31.00
2022-08-03T18:24:52.864Z,30.70
2022-08-03T18:27:21.073Z,30.50
2022-08-03T18:29:51.296Z,30.30
2022-08-03T18:32:18.273Z,30.00
2022-08-03T18:34:53.548Z,29.80
2022-08-03T18:37:25.259Z,29.60
2022-08-03T18:39:57.891Z,29.40
2022-08-03T18:42:25.998Z,29.20
2022-08-03T18:44:56.281Z,28.90
2022-08-03T18:47:52.334Z,28.80
2022-08-03T18:50:40.932Z,28.60
2022-08-03T18:53:22.643Z,28.40
2022-08-03T18:56:23.351Z,28.20
2022-08-03T18:59:03.537Z,28.00
2022-08-03T19:02:00.519Z,27.80
2022-08-03T19:04:46.089Z,27.60
2022-08-03T19:07:24.395Z,27.50
2022-08-03T19:09:58.932Z,27.40
2022-08-03T19:12:33.933Z,27.20
2022-08-03T19:15:10.614Z,27.10
2022-08-03T19:17:50.313Z,27.00
2022-08-03T19:20:22.297Z,26.80
2022-08-03T19:22:50.901Z,26.70
2022-08-03T19:25:18.404Z,26.60
2022-08-03T19:27:46.992Z,26.50
2022-08-03T19:30:38.972Z,26.50
2022-08-03T19:33:09.178Z,26.40
2022-08-03T19:35:52.267Z,26.40
2022-08-03T19:38:29.254Z,26.20
2022-08-03T19:41:02.546Z,26.20
2022-08-03T19:43:53.188Z,26.10
2022-08-03T19:46:30.514Z,26.00
2022-08-03T19:49:10.319Z,25.90
2022-08-03T19:51:58.391Z,25.80
2022-08-03T19:54:36.392Z,25.70
2022-08-03T19:57:07.840Z,25.60
2022-08-03T19:59:49.637Z,25.50
2022-08-03T20:02:26.540Z,25.50
2022-08-03T20:04:56.100Z,25.40
2022-08-03T20:07:23.766Z,25.40
2022-08-03T20:09:54.442Z,25.40
2022-08-03T20:12:26.541Z,25.30
2022-08-03T20:14:56.877Z,25.30
2022-08-03T20:17:54.297Z,25.30
2022-08-03T20:20:10.506Z,25.30
2022-08-03T20:22:46.086Z,25.30
2022-08-03T20:25:16.214Z,25.30
2022-08-03T20:28:05.833Z,25.30
2022-08-03T20:30:35.397Z,25.30
2022-08-03T20:33:02.104Z,25.30
2022-08-03T20:35:30.466Z,25.30
2022-08-03T20:37:59.159Z,25.20
2022-08-03T20:40:27.367Z,25.30
2022-08-03T20:42:55.225Z,25.20
2022-08-03T20:45:59.604Z,25.10
2022-08-03T20:48:09.895Z,25.00
2022-08-03T20:50:38.684Z,25.00
2022-08-03T20:53:07.645Z,25.00
2022-08-03T20:55:48.283Z,24.90
2022-08-03T20:58:26.216Z,24.80
2022-08-03T21:00:55.715Z,24.80
2022-08-03T21:03:22.475Z,24.70
2022-08-03T21:05:53.675Z,24.70
2022-08-03T21:08:22.342Z,24.70
2022-08-03T21:10:50.095Z,24.70
2022-08-03T21:13:05.980Z,31.20
2022-08-03T21:13:50.776Z,24.70
2022-08-03T21:16:26.749Z,24.70
2022-08-03T21:18:54.547Z,24.60
2022-08-03T21:21:22.987Z,24.60
2022-08-03T21:23:52.906Z,24.50
2022-08-03T21:26:22.027Z,24.50
2022-08-03T21:28:50.023Z,24.50
2022-08-03T21:31:22.367Z,24.50
2022-08-03T21:33:54.458Z,24.50
2022-08-03T21:36:21.159Z,24.40
2022-08-03T21:38:56.365Z,24.30
2022-08-03T21:41:25.258Z,24.30
2022-08-03T21:43:51.980Z,24.30
2022-08-03T21:46:19.888Z,24.20
2022-08-03T21:48:52.587Z,24.10
2022-08-03T21:51:23.515Z,24.10
2022-08-03T21:54:02.376Z,24.00
2022-08-03T21:56:36.463Z,23.90
2022-08-03T21:59:08.536Z,23.90
2022-08-03T22:01:39.471Z,23.90
2022-08-03T22:04:11.858Z,23.90
2022-08-03T22:06:42.235Z,24.00
2022-08-03T22:09:09.270Z,23.90
2022-08-03T22:11:37.454Z,23.90
2022-08-03T22:14:04.407Z,23.80
2022-08-03T22:16:31.414Z,23.80
2022-08-03T22:18:58.083Z,23.70
2022-08-03T22:21:36.105Z,23.70
2022-08-03T22:24:05.321Z,23.70
2022-08-03T22:26:35.423Z,23.70
2022-08-03T22:29:07.374Z,23.60
2022-08-03T22:31:58.777Z,23.60
2022-08-03T22:34:27.176Z,23.50
2022-08-03T22:36:57.276Z,23.40
2022-08-03T22:39:28.848Z,23.40
2022-08-03T22:41:57.966Z,23.40
2022-08-03T22:44:25.913Z,23.40
2022-08-03T22:46:52.862Z,23.30
2022-08-03T22:49:20.043Z,23.30
2022-08-03T22:51:47.582Z,23.20
2022-08-03T22:54:15.141Z,23.20
2022-08-03T22:56:42.597Z,23.10
2022-08-03T22:59:40.081Z,23.10
2022-08-03T23:02:01.882Z,23.10
2022-08-03T23:04:44.229Z,23.00
2022-08-03T23:07:15.067Z,23.00
2022-08-03T23:09:44.610Z,22.90
2022-08-03T23:12:16.859Z,22.90
2022-08-03T23:14:47.185Z,22.80
2022-08-03T23:17:15.415Z,22.70
2022-08-03T23:19:44.811Z,22.70
2022-08-03T23:22:29.411Z,22.70
2022-08-03T23:24:58.850Z,22.60
2022-08-03T23:27:27.305Z,22.60
2022-08-03T23:29:57.135Z,22.50
2022-08-03T23:32:26.551Z,22.50
2022-08-03T23:35:15.303Z,22.40
2022-08-03T23:38:04.570Z,22.50
2022-08-03T23:40:30.879Z,22.40
2022-08-03T23:42:59.143Z,22.30
2022-08-03T23:45:28.024Z,22.30
2022-08-03T23:47:55.067Z,22.20
2022-08-03T23:50:21.858Z,22.20
2022-08-03T23:53:17.469Z,22.20
2022-08-03T23:55:59.815Z,22.20
2022-08-03T23:58:52.897Z,22.10
